createdAt,value
2022-10-24T00:01:23.663Z,99398.94
2022-10-24T00:03:51.356Z,99401.00
2022-10-24T00:06:20.235Z,99406.75
2022-10-24T00:08:48.205Z,99399.41
2022-10-24T00:11:22.160Z,99397.97
2022-10-24T00:13:50.371Z,99377.69
2022-10-24T00:16:18.663Z,99381.81
2022-10-24T00:18:46.186Z,99386.53
2022-10-24T00:21:14.162Z,99384.94
2022-10-24T00:23:41.301Z,99387.59
2022-10-24T00:26:08.520Z,99392.75
2022-10-24T00:28:39.766Z,99400.94
2022-10-24T00:31:12.645Z,99399.09
2022-10-24T00:33:39.810Z,99392.34
2022-10-24T00:36:16.077Z,99383.50
2022-10-24T00:38:43.676Z,99384.97
2022-10-24T00:41:20.164Z,99380.66
2022-10-24T00:43:47.858Z,99391.34
2022-10-24T00:46:18.117Z,99391.34
2022-10-24T00:48:53.337Z,99394.81
2022-10-24T00:51:33.856Z,99379.25
2022-10-24T00:54:06.257Z,99384.38
2022-10-24T00:56:41.169Z,99382.38
2022-10-24T00:59:12.798Z,99389.31
2022-10-24T01:01:43.611Z,99381.53
2022-10-24T01:04:13.948Z,99381.97
2022-10-24T01:07:10.214Z,99386.69
2022-10-24T01:10:09.605Z,99388.75
2022-10-24T01:12:57.560Z,99395.50
2022-10-24T01:15:49.149Z,99381.59
2022-10-24T01:18:39.428Z,99372.59
2022-10-24T01:21:30.685Z,99377.13
2022-10-24T01:24:49.541Z,99370.97
2022-10-24T01:28:04.423Z,99372.00
2022-10-24T01:30:48.030Z,99357.84
2022-10-24T01:33:46.265Z,99363.16
2022-10-24T01:36:34.782Z,99365.22
2022-10-24T01:39:10.759Z,99373.22
2022-10-24T01:41:40.301Z,99359.91
2022-10-24T01:44:21.802Z,99352.97
2022-10-24T01:46:57.879Z,99354.81
2022-10-24T01:49:34.961Z,99348.88
2022-10-24T01:52:10.018Z,99357.06
2022-10-24T01:54:39.672Z,99350.94
2022-10-24T01:57:08.072Z,99355.84
2022-10-24T01:59:45.835Z,99352.16
2022-10-24T02:02:30.289Z,99348.47
2022-10-24T02:05:09.666Z,99360.16
2022-10-24T02:07:43.054Z,99357.69
2022-10-24T02:10:24.510Z,99367.97
2022-10-24T02:13:05.371Z,99374.31
2022-10-24T02:15:40.948Z,99373.09
2022-10-24T02:18:10.130Z,99357.13
2022-10-24T02:21:16.801Z,99343.19
2022-10-24T02:24:02.757Z,99349.78
2022-10-24T02:26:57.705Z,99348.53
2022-10-24T02:29:36.269Z,99354.91
2022-10-24T02:32:13.693Z,99353.88
2022-10-24T02:34:43.839Z,99346.09
2022-10-24T02:37:14.538Z,99347.72
2022-10-24T02:39:48.170Z,99352.25
2022-10-24T02:42:17.315Z,99362.91
2022-10-24T02:44:48.188Z,99357.56
2022-10-24T02:47:18.103Z,99353.28
2022-10-24T02:49:46.758Z,99347.97
2022-10-24T02:52:14.608Z,99353.06
2022-10-24T02:54:41.979Z,99350.19
2022-10-24T02:57:09.287Z,99353.28
2022-10-24T02:59:36.552Z,99344.47
2022-10-24T03:02:03.854Z,99348.97
2022-10-24T03:04:31.609Z,99342.00
2022-10-24T03:06:58.694Z,99351.03
2022-10-24T03:09:25.961Z,99350.00
2022-10-24T03:11:53.229Z,99356.38
2022-10-24T03:14:20.401Z,99343.25
2022-10-24T03:16:47.400Z,99345.31
2022-10-24T03:19:14.686Z,99354.13
2022-10-24T03:21:42.153Z,99355.56
2022-10-24T03:24:10.075Z,99346.16
2022-10-24T03:26:37.343Z,99343.28
2022-10-24T03:29:05.210Z,99338.31
2022-10-24T03:31:32.633Z,99324.41
2022-10-24T03:34:00.659Z,99314.19
2022-10-24T03:36:29.229Z,99310.91
2022-10-24T03:38:56.382Z,99310.91
2022-10-24T03:41:23.705Z,99318.28
2022-10-24T03:43:50.818Z,99315.41
2022-10-24T03:46:18.263Z,99316.22
2022-10-24T03:48:45.877Z,99337.53
2022-10-24T03:51:12.989Z,99347.78
2022-10-24T03:53:40.237Z,99354.34
2022-10-24T03:56:08.110Z,99340.22
2022-10-24T03:58:35.357Z,99336.31
2022-10-24T04:01:02.485Z,99336.31
2022-10-24T04:03:29.900Z,99342.47
2022-10-24T04:05:56.875Z,99350.25
2022-10-24T04:08:24.137Z,99344.09
2022-10-24T04:10:51.571Z,99351.25
2022-10-24T04:13:18.750Z,99348.59
2022-10-24T04:15:45.690Z,99351.88
2022-10-24T04:18:13.053Z,99337.53
2022-10-24T04:20:40.012Z,99326.88
2022-10-24T04:23:07.426Z,99332.22
2022-10-24T04:25:34.698Z,99332.22
2022-10-24T04:28:02.702Z,99323.22
2022-10-24T04:30:29.857Z,99346.13
2022-10-24T04:32:57.556Z,99341.63
2022-10-24T04:35:26.068Z,99345.09
2022-10-24T04:37:53.743Z,99346.94
2022-10-24T04:40:21.137Z,99359.44
2022-10-24T04:42:48.417Z,99344.50
2022-10-24T04:45:15.626Z,99350.66
2022-10-24T04:47:43.803Z,99353.09
2022-10-24T04:50:11.661Z,99354.75
2022-10-24T04:52:39.089Z,99356.78
2022-10-24T04:55:06.610Z,99363.75
2022-10-24T04:57:33.917Z,99352.09
2022-10-24T05:00:04.193Z,99341.22
2022-10-24T05:02:32.974Z,99341.22
2022-10-24T05:05:00.058Z,99337.94
2022-10-24T05:07:29.449Z,99338.78
2022-10-24T05:09:56.744Z,99335.47
2022-10-24T05:12:23.960Z,99329.13
2022-10-24T05:14:50.892Z,99326.47
2022-10-24T05:17:18.284Z,99326.25
2022-10-24T05:19:45.421Z,99330.78
2022-10-24T05:22:12.630Z,99331.56
2022-10-24T05:24:39.804Z,99319.09
2022-10-24T05:27:07.501Z,99323.41
2022-10-24T05:29:35.497Z,99327.69
2022-10-24T05:32:04.701Z,99332.22
2022-10-24T05:34:31.921Z,99348.97
2022-10-24T05:36:59.377Z,99344.50
2022-10-24T05:39:26.533Z,99342.44
2022-10-24T05:41:55.302Z,99351.47
2022-10-24T05:44:22.885Z,99344.09
2022-10-24T05:46:50.278Z,99336.94
2022-10-24T05:49:17.219Z,99337.94
2022-10-24T05:51:44.363Z,99331.59
2022-10-24T05:56:39.771Z,99332.22
2022-10-24T05:59:06.798Z,99334.47
2022-10-24T06:01:35.018Z,99337.13
2022-10-24T06:04:02.503Z,99340.78
2022-10-24T06:06:30.023Z,99345.91
2022-10-24T06:08:57.150Z,99336.09
2022-10-24T06:11:24.387Z,99346.50
2022-10-24T06:13:51.422Z,99350.59
2022-10-24T06:16:18.920Z,99351.41
2022-10-24T06:18:45.928Z,99353.88
2022-10-24T06:21:15.508Z,99357.94
2022-10-24T06:23:42.710Z,99358.38
2022-10-24T06:26:11.399Z,99360.22
2022-10-24T06:28:39.056Z,99357.91
2022-10-24T06:31:08.192Z,99365.72
2022-10-24T06:33:35.705Z,99367.34
2022-10-24T06:36:05.511Z,99382.09
2022-10-24T06:38:33.206Z,99381.88
2022-10-24T06:41:07.479Z,99387.81
2022-10-24T06:43:36.351Z,99385.75
2022-10-24T06:46:14.281Z,99378.38
2022-10-24T06:48:41.848Z,99371.81
2022-10-24T06:51:09.412Z,99364.00
2022-10-24T06:53:36.583Z,99367.06
2022-10-24T06:56:06.443Z,99374.19
2022-10-24T06:58:36.613Z,99372.94
2022-10-24T07:01:17.471Z,99365.91
2022-10-24T07:03:46.152Z,99373.22
2022-10-24T07:08:52.462Z,99380.84
2022-10-24T07:11:19.843Z,99380.94
2022-10-24T07:13:48.032Z,99390.94
2022-10-24T07:16:16.430Z,99394.56
2022-10-24T07:18:44.234Z,99385.94
2022-10-24T07:21:20.589Z,99387.94
2022-10-24T07:23:47.996Z,99389.53
2022-10-24T07:26:16.735Z,99385.53
2022-10-24T07:28:46.511Z,99382.34
2022-10-24T07:31:17.655Z,99377.97
2022-10-24T07:33:44.729Z,99372.69
2022-10-24T07:36:21.651Z,99367.66
2022-10-24T07:38:51.862Z,99361.44
2022-10-24T07:41:19.602Z,99365.09
2022-10-24T07:43:47.267Z,99358.38
2022-10-24T07:46:17.205Z,99351.69
2022-10-24T07:48:44.597Z,99354.44
2022-10-24T07:51:14.370Z,99343.09
2022-10-24T07:53:42.595Z,99343.50
2022-10-24T07:56:15.949Z,99333.22
2022-10-24T07:58:45.881Z,99340.69
2022-10-24T08:01:24.315Z,99337.97
2022-10-24T08:03:51.621Z,99329.94
2022-10-24T08:06:28.938Z,99338.44
2022-10-24T08:08:56.738Z,99337.34
2022-10-24T08:11:28.218Z,99342.03
2022-10-24T08:13:59.570Z,99337.16
2022-10-24T08:16:27.056Z,99330.56
2022-10-24T08:18:57.715Z,99338.72
2022-10-24T08:21:25.601Z,99327.03
2022-10-24T08:23:54.631Z,99329.22
2022-10-24T08:26:24.673Z,99333.09
2022-10-24T08:28:53.309Z,99337.31
2022-10-24T08:31:23.307Z,99329.69
2022-10-24T08:33:55.512Z,99327.09
2022-10-24T08:36:30.503Z,99320.56
2022-10-24T08:38:58.487Z,99319.28
2022-10-24T08:41:33.437Z,99321.31
2022-10-24T08:44:04.477Z,99327.41
2022-10-24T08:46:40.475Z,99311.75
2022-10-24T08:49:28.158Z,99289.25
2022-10-24T08:52:17.766Z,99272.03
2022-10-24T08:54:46.607Z,99262.63
2022-10-24T08:57:27.875Z,99272.53
2022-10-24T09:00:02.274Z,99275.41
2022-10-24T09:02:38.141Z,99285.16
2022-10-24T09:05:24.428Z,99290.13
2022-10-24T09:08:39.155Z,99275.47
2022-10-24T09:11:07.798Z,99274.25
2022-10-24T09:13:38.481Z,99270.00
2022-10-24T09:16:06.154Z,99265.75
2022-10-24T09:18:42.004Z,99267.97
2022-10-24T09:21:14.947Z,99259.91
2022-10-24T09:23:43.964Z,99255.91
2022-10-24T09:26:24.851Z,99246.25
2022-10-24T09:28:55.152Z,99231.41
2022-10-24T09:31:25.921Z,99228.16
2022-10-24T09:33:54.295Z,99230.28
2022-10-24T09:36:25.111Z,99234.31
2022-10-24T09:38:52.528Z,99247.03
2022-10-24T09:41:27.190Z,99254.59
2022-10-24T09:44:04.389Z,99269.50
2022-10-24T09:46:45.315Z,99269.22
2022-10-24T09:49:12.563Z,99270.56
2022-10-24T09:51:45.764Z,99262.22
2022-10-24T09:54:19.299Z,99249.22
2022-10-24T09:57:11.203Z,99250.28
2022-10-24T09:59:58.672Z,99252.47
2022-10-24T10:02:34.361Z,99253.53
2022-10-24T10:05:04.314Z,99248.13
2022-10-24T10:07:33.969Z,99247.03
2022-10-24T10:10:19.302Z,99231.31
2022-10-24T10:13:04.445Z,99235.38
2022-10-24T10:15:49.180Z,99236.44
2022-10-24T10:18:39.635Z,99245.88
2022-10-24T10:21:14.573Z,99242.09
2022-10-24T10:23:51.322Z,99242.38
2022-10-24T10:26:46.276Z,99240.44
2022-10-24T10:29:19.451Z,99238.53
2022-10-24T10:32:03.530Z,99246.94
2022-10-24T10:34:45.658Z,99263.44
2022-10-24T10:37:35.947Z,99261.88
2022-10-24T10:40:03.232Z,99250.78
2022-10-24T10:43:00.805Z,99241.59
2022-10-24T10:45:47.018Z,99238.88
2022-10-24T10:49:08.071Z,99245.63
2022-10-24T10:52:09.917Z,99252.91
2022-10-24T10:55:15.078Z,99251.84
2022-10-24T10:58:49.637Z,99260.47
2022-10-24T11:01:33.956Z,99252.34
2022-10-24T11:04:13.319Z,99252.88
2022-10-24T11:06:56.567Z,99245.81
2022-10-24T11:09:33.120Z,99231.72
2022-10-24T11:12:22.337Z,99239.25
2022-10-24T11:15:00.535Z,99240.56
2022-10-24T11:17:59.898Z,99247.59
2022-10-24T11:20:37.358Z,99254.03
2022-10-24T11:23:10.310Z,99246.66
2022-10-24T11:26:09.686Z,99254.16
2022-10-24T11:29:17.841Z,99253.81
2022-10-24T11:35:13.927Z,99239.75
2022-10-24T11:37:47.806Z,99243.38
2022-10-24T11:40:23.588Z,99237.84
2022-10-24T11:43:19.777Z,99248.09
2022-10-24T11:46:04.263Z,99243.44
2022-10-24T11:48:53.277Z,99241.34
2022-10-24T11:51:47.488Z,99231.31
2022-10-24T11:54:26.331Z,99237.69
2022-10-24T11:57:04.489Z,99241.34
2022-10-24T11:59:31.867Z,99240.66
2022-10-24T12:02:07.222Z,99230.00
2022-10-24T12:05:00.331Z,99222.72
2022-10-24T12:08:10.425Z,99218.78
2022-10-24T12:11:20.034Z,99217.63
2022-10-24T12:14:22.801Z,99215.09
2022-10-24T12:17:29.012Z,99216.28
2022-10-24T12:19:57.052Z,99211.50
2022-10-24T12:22:40.256Z,99201.22
2022-10-24T12:25:26.210Z,99199.50
2022-10-24T12:27:58.060Z,99188.94
2022-10-24T12:30:29.750Z,99191.06
2022-10-24T12:33:32.462Z,99191.78
2022-10-24T12:36:00.085Z,99184.84
2022-10-24T12:38:27.456Z,99174.28
2022-10-24T12:41:32.454Z,99167.81
2022-10-24T12:44:37.789Z,99155.31
2022-10-24T12:47:40.254Z,99159.84
2022-10-24T12:50:23.085Z,99157.72
2022-10-24T12:53:02.946Z,99156.31
2022-10-24T12:56:08.002Z,99151.84
2022-10-24T12:58:42.960Z,99139.84
2022-10-24T13:01:27.335Z,99142.56
2022-10-24T13:04:18.560Z,99141.59
2022-10-24T13:07:57.514Z,99142.78
2022-10-24T13:10:59.429Z,99148.94
2022-10-24T13:14:21.410Z,99145.03
2022-10-24T13:17:26.726Z,99152.28
2022-10-24T13:20:23.569Z,99147.25
2022-10-24T13:23:03.448Z,99153.91
2022-10-24T13:25:37.474Z,99159.91
2022-10-24T13:28:19.720Z,99165.81
2022-10-24T13:30:49.899Z,99162.88
2022-10-24T13:33:32.979Z,99168.00
2022-10-24T13:36:09.854Z,99164.41
2022-10-24T13:38:42.335Z,99156.72
2022-10-24T13:41:17.379Z,99162.09
2022-10-24T13:43:51.751Z,99164.78
2022-10-24T13:49:25.690Z,99167.25
2022-10-24T13:51:59.653Z,99157.91
2022-10-24T13:54:33.097Z,99166.97
2022-10-24T13:57:02.257Z,99167.13
2022-10-24T13:59:38.757Z,99160.84
2022-10-24T14:02:19.573Z,99161.41
2022-10-24T14:04:49.511Z,99156.34
2022-10-24T14:07:27.017Z,99160.81
2022-10-24T14:10:16.980Z,99162.09
2022-10-24T14:12:45.693Z,99164.09
2022-10-24T14:15:20.382Z,99165.03
2022-10-24T14:18:00.258Z,99165.69
2022-10-24T14:20:36.277Z,99163.38
2022-10-24T14:23:24.547Z,99155.63
2022-10-24T14:26:03.359Z,99165.84
2022-10-24T14:28:45.890Z,99171.59
2022-10-24T14:31:26.877Z,99172.31
2022-10-24T14:33:56.657Z,99170.22
2022-10-24T14:36:29.498Z,99179.00
2022-10-24T14:39:00.919Z,99175.84
2022-10-24T14:41:34.563Z,99176.47
2022-10-24T14:44:07.193Z,99171.69
2022-10-24T14:46:39.808Z,99172.31
2022-10-24T14:49:27.404Z,99173.44
2022-10-24T14:52:10.253Z,99180.03
2022-10-24T14:54:41.433Z,99182.28
2022-10-24T14:57:19.921Z,99187.75
2022-10-24T14:59:50.938Z,99195.91
2022-10-24T15:02:33.003Z,99205.72
2022-10-24T15:05:27.686Z,99211.94
2022-10-24T15:08:24.148Z,99207.16
2022-10-24T15:11:16.216Z,99204.47
2022-10-24T15:14:05.612Z,99202.06
2022-10-24T15:16:39.483Z,99201.59
2022-10-24T15:19:14.723Z,99200.03
2022-10-24T15:21:46.003Z,99208.19
2022-10-24T15:24:27.008Z,99210.41
2022-10-24T15:27:11.399Z,99207.22
2022-10-24T15:29:40.606Z,99209.94
2022-10-24T15:32:10.663Z,99206.44
2022-10-24T15:34:37.702Z,99194.03
2022-10-24T15:37:07.629Z,99197.03
2022-10-24T15:39:35.293Z,99197.38
2022-10-24T15:44:35.455Z,99202.28
2022-10-24T15:47:06.239Z,99201.47
2022-10-24T15:49:35.456Z,99212.56
2022-10-24T15:52:07.971Z,99223.72
2022-10-24T15:54:35.163Z,99214.00
2022-10-24T15:57:05.254Z,99221.31
2022-10-24T15:59:32.987Z,99210.81
2022-10-24T16:02:03.540Z,99213.53
2022-10-24T16:04:34.586Z,99213.78
2022-10-24T16:07:02.416Z,99211.91
2022-10-24T16:09:31.098Z,99214.63
2022-10-24T16:11:58.613Z,99206.53
2022-10-24T16:14:26.140Z,99214.66
2022-10-24T16:16:56.485Z,99217.34
2022-10-24T16:19:26.604Z,99216.28
2022-10-24T16:21:58.346Z,99214.41
2022-10-24T16:24:26.591Z,99217.13
2022-10-24T16:26:54.242Z,99219.78
2022-10-24T16:29:21.294Z,99217.91
2022-10-24T16:31:50.744Z,99229.53
2022-10-24T16:34:18.325Z,99226.56
2022-10-24T16:36:45.829Z,99222.78
2022-10-24T16:39:14.398Z,99230.88
2022-10-24T16:41:45.817Z,99232.47
2022-10-24T16:44:14.111Z,99236.00
2022-10-24T16:46:41.253Z,99236.53
2022-10-24T16:49:08.495Z,99240.56
2022-10-24T16:51:38.273Z,99234.38
2022-10-24T16:54:07.564Z,99235.19
2022-10-24T16:56:35.048Z,99235.19
2022-10-24T16:59:02.846Z,99234.06
2022-10-24T17:01:30.509Z,99233.00
2022-10-24T17:03:57.561Z,99228.13
2022-10-24T17:06:25.010Z,99232.44
2022-10-24T17:08:52.601Z,99232.16
2022-10-24T17:11:43.704Z,99224.88
2022-10-24T17:16:42.005Z,99231.59
2022-10-24T17:19:16.275Z,99224.28
2022-10-24T17:21:50.896Z,99228.59
2022-10-24T17:24:23.139Z,99222.88
2022-10-24T17:26:52.552Z,99228.56
2022-10-24T17:29:32.991Z,99223.13
2022-10-24T17:32:00.940Z,99232.81
2022-10-24T17:34:28.986Z,99232.78
2022-10-24T17:37:21.738Z,99230.66
2022-10-24T17:39:51.854Z,99237.38
2022-10-24T17:42:19.794Z,99229.28
2022-10-24T17:44:47.649Z,99227.38
2022-10-24T17:47:16.688Z,99230.03
2022-10-24T17:49:44.698Z,99230.56
2022-10-24T17:52:23.751Z,99228.38
2022-10-24T17:54:51.279Z,99222.97
2022-10-24T17:57:18.678Z,99222.94
2022-10-24T17:59:46.124Z,99218.59
2022-10-24T18:02:14.912Z,99207.78
2022-10-24T18:04:44.498Z,99208.31
2022-10-24T18:07:11.810Z,99208.28
2022-10-24T18:09:40.058Z,99216.06
2022-10-24T18:12:07.617Z,99217.66
2022-10-24T18:14:37.438Z,99221.13
2022-10-24T18:17:14.680Z,99216.53
2022-10-24T18:19:43.317Z,99208.41
2022-10-24T18:22:10.838Z,99213.50
2022-10-24T18:24:38.097Z,99224.78
2022-10-24T18:27:07.544Z,99221.00
2022-10-24T18:29:34.819Z,99223.63
2022-10-24T18:32:08.280Z,99214.44
2022-10-24T18:34:35.546Z,99213.31
2022-10-24T18:37:06.043Z,99214.63
2022-10-24T18:39:33.402Z,99215.97
2022-10-24T18:42:27.977Z,99212.44
2022-10-24T18:44:56.576Z,99210.53
2022-10-24T18:47:25.839Z,99209.41
2022-10-24T18:49:54.536Z,99206.16
2022-10-24T18:52:28.452Z,99200.22
2022-10-24T18:55:06.862Z,99203.41
2022-10-24T18:57:36.642Z,99200.44
2022-10-24T19:00:07.311Z,99207.69
2022-10-24T19:05:30.561Z,99197.13
2022-10-24T19:07:59.441Z,99190.63
2022-10-24T19:10:28.501Z,99191.97
2022-10-24T19:12:57.478Z,99179.28
2022-10-24T19:15:25.793Z,99172.25
2022-10-24T19:17:56.385Z,99176.28
2022-10-24T19:20:24.435Z,99172.47
2022-10-24T19:22:52.276Z,99176.22
2022-10-24T19:25:20.334Z,99189.13
2022-10-24T19:27:49.267Z,99188.06
2022-10-24T19:30:16.563Z,99194.22
2022-10-24T19:32:44.227Z,99192.28
2022-10-24T19:35:11.341Z,99199.00
2022-10-24T19:37:38.686Z,99201.91
2022-10-24T19:40:08.334Z,99201.38
2022-10-24T19:42:35.932Z,99206.19
2022-10-24T19:45:05.151Z,99210.75
2022-10-24T19:47:33.219Z,99213.13
2022-10-24T19:50:00.483Z,99204.25
2022-10-24T19:52:27.773Z,99205.31
2022-10-24T19:54:54.823Z,99209.06
2022-10-24T19:57:22.138Z,99203.94
2022-10-24T19:59:49.392Z,99205.00
2022-10-24T20:02:16.671Z,99206.91
2022-10-24T20:04:48.109Z,99204.44
2022-10-24T20:07:17.685Z,99214.09
2022-10-24T20:09:44.810Z,99219.47
2022-10-24T20:12:12.221Z,99229.66
2022-10-24T20:14:40.371Z,99222.09
2022-10-24T20:17:07.749Z,99232.84
2022-10-24T20:19:34.837Z,99225.84
2022-10-24T20:22:04.941Z,99225.84
2022-10-24T20:24:33.462Z,99222.59
2022-10-24T20:27:01.797Z,99220.97
2022-10-24T20:29:28.910Z,99230.09
2022-10-24T20:31:56.498Z,99228.47
2022-10-24T20:34:23.738Z,99230.59
2022-10-24T20:36:50.878Z,99234.31
2022-10-24T20:39:21.781Z,99228.13
2022-10-24T20:41:51.864Z,99223.03
2022-10-24T20:44:21.594Z,99230.00
2022-10-24T20:46:49.947Z,99234.81
2022-10-24T20:49:16.910Z,99235.63
2022-10-24T20:51:44.278Z,99237.78
2022-10-24T20:54:11.495Z,99242.31
2022-10-24T20:56:42.218Z,99248.69
2022-10-24T20:59:12.687Z,99243.81
2022-10-24T21:01:40.007Z,99245.44
2022-10-24T21:04:07.846Z,99243.81
2022-10-24T21:06:37.035Z,99250.81
2022-10-24T21:09:06.754Z,99247.56
2022-10-24T21:11:35.449Z,99244.63
2022-10-24T21:14:07.568Z,99241.13
2022-10-24T21:16:35.270Z,99252.44
2022-10-24T21:19:04.396Z,99250.81
2022-10-24T21:21:31.838Z,99248.13
2022-10-24T21:24:05.962Z,99251.63
2022-10-24T21:26:38.498Z,99253.75
2022-10-24T21:29:31.836Z,99247.56
2022-10-24T21:31:54.762Z,99254.81
2022-10-24T21:34:22.113Z,99247.56
2022-10-24T21:36:49.785Z,99251.31
2022-10-24T21:39:17.815Z,99254.25
2022-10-24T21:41:45.258Z,99258.81
2022-10-24T21:44:14.305Z,99249.94
2022-10-24T21:46:41.838Z,99250.50
2022-10-24T21:49:10.709Z,99247.00
2022-10-24T21:51:41.008Z,99244.31
2022-10-24T21:54:23.599Z,99241.88
2022-10-24T21:56:50.968Z,99258.81
2022-10-24T21:59:20.845Z,99252.38
2022-10-24T22:01:58.732Z,99249.09
2022-10-24T22:04:30.382Z,99252.31
2022-10-24T22:06:57.601Z,99251.78
2022-10-24T22:09:24.641Z,99251.78
2022-10-24T22:11:54.764Z,99251.78
2022-10-24T22:14:21.729Z,99262.53
2022-10-24T22:16:48.915Z,99262.06
2022-10-24T22:19:16.590Z,99264.19
2022-10-24T22:21:47.883Z,99268.75
2022-10-24T22:24:23.669Z,99256.69
2022-10-24T22:26:52.033Z,99258.00
2022-10-24T22:29:23.843Z,99254.47
2022-10-24T22:31:54.091Z,99262.06
2022-10-24T22:34:25.907Z,99263.13
2022-10-24T22:37:23.293Z,99274.94
2022-10-24T22:39:50.907Z,99269.56
2022-10-24T22:42:20.223Z,99267.91
2022-10-24T22:44:48.369Z,99266.31
2022-10-24T22:47:46.518Z,99266.06
2022-10-24T22:50:54.901Z,99265.81
2022-10-24T22:53:29.215Z,99267.91
2022-10-24T22:56:13.523Z,99274.94
2022-10-24T22:58:43.705Z,99278.66
2022-10-24T23:01:46.971Z,99277.63
2022-10-24T23:04:42.886Z,99270.59
2022-10-24T23:07:49.551Z,99282.44
2022-10-24T23:10:22.436Z,99267.91
2022-10-24T23:12:50.541Z,99269.81
2022-10-24T23:15:20.554Z,99269.56
2022-10-24T23:17:49.059Z,99262.53
2022-10-24T23:20:35.446Z,99272.50
2022-10-24T23:23:16.407Z,99264.19
2022-10-24T23:25:57.713Z,99265.22
2022-10-24T23:28:39.942Z,99255.56
2022-10-24T23:31:08.383Z,99259.31
2022-10-24T23:33:35.901Z,99270.03
2022-10-24T23:36:03.612Z,99267.91
2022-10-24T23:38:31.244Z,99267.91
2022-10-24T23:40:58.953Z,99262.53
2022-10-24T23:43:26.374Z,99267.38
2022-10-24T23:46:07.033Z,99262.00
2022-10-24T23:49:34.547Z,99270.88
2022-10-24T23:52:35.725Z,99276.50
2022-10-24T23:55:04.549Z,99274.31
2022-10-24T23:57:32.045Z,99279.69
2022-10-24T23:59:59.058Z,99279.69
